Largo — PFNC — position and weather

sailwx.info

Track history (hours):
 
Tides and Currents Weather Stations Pressure Air Temp Water Temp Dewpoint Dewpoint Depression Visibility Wind Speed Wind Dir Waves Ship Positions

Largo

Last reported at 2015-May-19 16:03 UTC. Time now 2015-May-22 22:11 UTC.
Position N 38°16' E 000°44'.

Length 91 m; draft 4.7 m.

Type: Cargo ship. MMSI: 245645000.

Date/timePositionNaut miles runAvg speedWind from/ knotsBaromVisibWave heightAir tempDewpointWater temp
2015-May-19 16:03N 38°16' E 000°44'4710.5
2015-May-19 11:33N 37°30' E 000°59'1010.0
2015-May-19 10:33N 37°21' E 001°03'13 9.8
2015-May-19 09:12N 37°08' E 001°07'6 9.8
2015-May-19 08:33N 37°02' E 001°09'20 9.8
2015-May-19 06:30N 36°42' E 001°15'11 3.6
2015-May-19 03:25N 36°32' E 001°19'0 0.0
2015-May-19 02:13N 36°32' E 001°19'0 0.0
2015-May-19 01:31N 36°32' E 001°19'0 0.0
2015-May-18 23:12N 36°32' E 001°19'0 0.0
2015-May-18 22:30N 36°32' E 001°19'0 0.0
2015-May-18 21:25N 36°32' E 001°19'0 0.0
2015-May-18 20:13N 36°32' E 001°19'0 0.0
2015-May-18 19:25N 36°32' E 001°19'0 0.0
2015-May-18 18:25N 36°32' E 001°19'0 0.0
2015-May-18 17:19N 36°32' E 001°19'0 0.0
2015-May-17 23:30N 36°32' E 001°19'0 0.0
2015-May-17 22:24N 36°32' E 001°19'0 0.0
2015-May-17 21:24N 36°32' E 001°19'  
2015-May-14 00:25N 38°20' W 000°29'0 0.0
2015-May-13 20:20N 38°20' W 000°29'3 3.7
2015-May-13 19:32N 38°18' W 000°26'1010.6
2015-May-13 18:33N 38°15' W 000°14'1010.5
2015-May-13 17:33N 38°12' W 000°01'1110.6
2015-May-13 16:33N 38°08' E 000°12'1110.9
2015-May-13 15:33N 38°05' E 000°25'1110.7
2015-May-13 14:33N 38°02' E 000°38'1110.6
2015-May-13 13:33N 37°59' E 000°51'1111.1
2015-May-13 12:33N 37°55' E 001°04'1211.6
2015-May-13 11:33N 37°52' E 001°18'1211.7
2015-May-13 10:33N 37°48' E 001°32'1211.7
2015-May-13 09:34N 37°45' E 001°46'1111.3
2015-May-13 08:33N 37°42' E 002°00'1111.0
2015-May-13 07:33N 37°38' E 002°13'1111.1
2015-May-13 06:33N 37°34' E 002°26'2211.0
2015-May-13 04:33N 37°27' E 002°52'1111.1
2015-May-13 03:33N 37°24' E 003°06'2210.7
2015-May-13 01:28N 37°17' E 003°32'910.3
2015-May-13 00:33N 37°14' E 003°44'1010.5
2015-May-12 23:33N 37°10' E 003°56'1110.6
2015-May-12 22:33N 37°08' E 004°09'1110.7
2015-May-12 21:33N 37°04' E 004°22'1111.1
2015-May-12 20:33N 37°01' E 004°35'  
Track history (hours):
 
Tides and Currents Weather Stations Pressure Air Temp Water Temp Dewpoint Dewpoint Depression Visibility Wind Speed Wind Dir Waves Ship Positions

Largo

Last reported at 2015-May-19 16:03 UTC. Time now 2015-May-22 22:11 UTC.
Position N 38°16' E 000°44'.

Length 91 m; draft 4.7 m.

Type: Cargo ship. MMSI: 245645000.

Date/timePositionNaut miles runAvg speedWind from/ knotsBaromVisibWave heightAir tempDewpointWater temp
2015-May-19 16:03N 38°16' E 000°44'4710.5
2015-May-19 11:33N 37°30' E 000°59'1010.0
2015-May-19 10:33N 37°21' E 001°03'13 9.8
2015-May-19 09:12N 37°08' E 001°07'6 9.8
2015-May-19 08:33N 37°02' E 001°09'20 9.8
2015-May-19 06:30N 36°42' E 001°15'11 3.6
2015-May-19 03:25N 36°32' E 001°19'0 0.0
2015-May-19 02:13N 36°32' E 001°19'0 0.0
2015-May-19 01:31N 36°32' E 001°19'0 0.0
2015-May-18 23:12N 36°32' E 001°19'0 0.0
2015-May-18 22:30N 36°32' E 001°19'0 0.0
2015-May-18 21:25N 36°32' E 001°19'0 0.0
2015-May-18 20:13N 36°32' E 001°19'0 0.0
2015-May-18 19:25N 36°32' E 001°19'0 0.0
2015-May-18 18:25N 36°32' E 001°19'0 0.0
2015-May-18 17:19N 36°32' E 001°19'0 0.0
2015-May-17 23:30N 36°32' E 001°19'0 0.0
2015-May-17 22:24N 36°32' E 001°19'0 0.0
2015-May-17 21:24N 36°32' E 001°19'  
2015-May-14 00:25N 38°20' W 000°29'0 0.0
2015-May-13 20:20N 38°20' W 000°29'3 3.7
2015-May-13 19:32N 38°18' W 000°26'1010.6
2015-May-13 18:33N 38°15' W 000°14'1010.5
2015-May-13 17:33N 38°12' W 000°01'1110.6
2015-May-13 16:33N 38°08' E 000°12'1110.9
2015-May-13 15:33N 38°05' E 000°25'1110.7
2015-May-13 14:33N 38°02' E 000°38'1110.6
2015-May-13 13:33N 37°59' E 000°51'1111.1
2015-May-13 12:33N 37°55' E 001°04'1211.6
2015-May-13 11:33N 37°52' E 001°18'1211.7
2015-May-13 10:33N 37°48' E 001°32'1211.7
2015-May-13 09:34N 37°45' E 001°46'1111.3
2015-May-13 08:33N 37°42' E 002°00'1111.0
2015-May-13 07:33N 37°38' E 002°13'1111.1
2015-May-13 06:33N 37°34' E 002°26'2211.0
2015-May-13 04:33N 37°27' E 002°52'1111.1
2015-May-13 03:33N 37°24' E 003°06'2210.7
2015-May-13 01:28N 37°17' E 003°32'910.3
2015-May-13 00:33N 37°14' E 003°44'1010.5
2015-May-12 23:33N 37°10' E 003°56'1110.6
2015-May-12 22:33N 37°08' E 004°09'1110.7
2015-May-12 21:33N 37°04' E 004°22'1111.1
2015-May-12 20:33N 37°01' E 004°35'  

Dump ship's entire track history